createdAt,value
2018-12-27T00:00:38.350Z,98.24
2018-12-27T00:01:38.756Z,98.71
2018-12-27T00:02:39.444Z,98.71
2018-12-27T00:03:39.823Z,99.19
2018-12-27T00:04:40.505Z,99
2018-12-27T00:05:40.936Z,99.99
2018-12-27T00:06:41.892Z,99.95
2018-12-27T00:07:43.297Z,99.99
2018-12-27T00:08:43.426Z,99.95
2018-12-27T00:09:44.386Z,99.85
2018-12-27T00:10:45.141Z,99.95
2018-12-27T00:11:45.894Z,99.99
2018-12-27T00:12:46.021Z,99.99
2018-12-27T00:13:46.557Z,99.99
2018-12-27T00:14:47.689Z,99.99
2018-12-27T00:15:49.031Z,99.99
2018-12-27T00:16:49.446Z,99.99
2018-12-27T00:17:49.862Z,99.99
2018-12-27T00:18:51.268Z,99.85
2018-12-27T00:19:51.949Z,99.99
2018-12-27T00:20:52.362Z,99.99
2018-12-27T00:21:53.042Z,99.76
2018-12-27T00:22:54.170Z,99.85
2018-12-27T00:23:54.702Z,99.99
2018-12-27T00:24:55.106Z,99.99
2018-12-27T00:25:55.818Z,99.99
2018-12-27T00:26:56.285Z,99.99
2018-12-27T00:27:57.242Z,99.99
2018-12-27T00:28:58.372Z,99.99
2018-12-27T00:29:59.055Z,99.99
2018-12-27T00:30:59.336Z,99.99
2018-12-27T00:32:00.018Z,99.99
2018-12-27T00:33:04.145Z,99.99
2018-12-27T00:34:05.235Z,99.99
2018-12-27T00:35:05.799Z,99.99
2018-12-27T00:36:06.207Z,99.99
2018-12-27T00:37:07.163Z,99.99
2018-12-27T00:38:07.864Z,99.99
2018-12-27T00:39:09.265Z,99.99
2018-12-27T00:40:10.223Z,99.99
2018-12-27T00:41:10.904Z,99.99
2018-12-27T00:42:11.140Z,99.99
2018-12-27T00:43:12.102Z,99.99
2018-12-27T00:44:12.343Z,99.99
2018-12-27T00:45:13.028Z,99.99
2018-12-27T00:46:13.429Z,99.99
2018-12-27T00:47:14.557Z,99.99
2018-12-27T00:48:15.241Z,99.99
2018-12-27T00:49:15.210Z,99.99
2018-12-27T00:50:16.177Z,99.99
2018-12-27T00:51:16.584Z,99.99
2018-12-27T00:52:18.263Z,99.99
2018-12-27T00:53:18.501Z,99.99
2018-12-27T00:54:19.326Z,99.66
2018-12-27T00:55:19.728Z,99.38
2018-12-27T00:56:20.688Z,99
2018-12-27T00:57:21.091Z,99
2018-12-27T00:58:22.327Z,98.52
2018-12-27T00:59:23.011Z,98.52
2018-12-27T01:00:24.412Z,98.52
2018-12-27T01:01:24.813Z,98.62
2018-12-27T01:02:25.594Z,98.52
2018-12-27T01:03:26.014Z,98.71
2018-12-27T01:04:26.548Z,98.43
2018-12-27T01:05:27.231Z,98.14
2018-12-27T01:06:27.913Z,98.52
2018-12-27T01:07:28.398Z,99.19
2018-12-27T01:08:28.802Z,99.47
2018-12-27T01:09:29.204Z,99.09
2018-12-27T01:10:29.331Z,99
2018-12-27T01:11:30.737Z,99.09
2018-12-27T01:12:31.151Z,99.19
2018-12-27T01:13:32.280Z,99
2018-12-27T01:14:33.363Z,98.9
2018-12-27T01:15:34.774Z,99.47
2018-12-27T01:16:35.181Z,99.19
2018-12-27T01:17:36.585Z,99.57
2018-12-27T01:18:49.287Z,98.52
2018-12-27T01:19:50.108Z,98.33
2018-12-27T01:20:51.078Z,98.24
2018-12-27T01:21:52.328Z,98.81
2018-12-27T01:22:52.740Z,98.9
2018-12-27T01:23:53.883Z,98.81
2018-12-27T01:24:54.290Z,99.19
2018-12-27T01:25:54.986Z,98.9
2018-12-27T01:26:55.676Z,99.19
2018-12-27T01:27:56.092Z,99
2018-12-27T01:28:56.788Z,99.57
2018-12-27T01:29:57.605Z,99.09
2018-12-27T01:30:58.302Z,99.89
2018-12-27T01:31:59.266Z,99.8
2018-12-27T01:32:59.515Z,99.85
2018-12-27T01:34:00.204Z,99.8
2018-12-27T01:35:01.180Z,99.8
2018-12-27T01:36:01.707Z,99.99
2018-12-27T01:37:01.397Z,99.95
2018-12-27T01:38:02.013Z,99.95
2018-12-27T01:39:02.265Z,99.99
2018-12-27T01:40:04.226Z,99.99
2018-12-27T01:41:04.364Z,99.85
2018-12-27T01:42:05.500Z,99.95
2018-12-27T01:43:06.477Z,99.57
2018-12-27T01:44:07.169Z,98.9
2018-12-27T01:45:07.584Z,98.71
2018-12-27T01:46:08.609Z,98.62
2018-12-27T01:47:09.576Z,98.43
2018-12-27T01:48:09.267Z,98.33
2018-12-27T01:49:10.236Z,97.86
2018-12-27T01:50:12.945Z,97.67
2018-12-27T01:51:11.081Z,97.77
2018-12-27T01:52:11.610Z,97.96
2018-12-27T01:53:12.018Z,97.86
2018-12-27T01:54:13.154Z,97.86
2018-12-27T01:55:13.565Z,97.3
2018-12-27T01:56:14.710Z,97.3
2018-12-27T01:57:15.682Z,97.2
2018-12-27T01:58:16.648Z,97.01
2018-12-27T01:59:17.363Z,96.73
2018-12-27T02:00:17.626Z,96.54
2018-12-27T02:01:18.762Z,95.97
2018-12-27T02:02:19.175Z,96.35
2018-12-27T02:03:27.252Z,95.88
2018-12-27T02:03:32.231Z,95.4
2018-12-27T02:04:33.050Z,94.93
2018-12-27T02:05:34.020Z,95.03
2018-12-27T02:06:34.711Z,95.12
2018-12-27T02:07:36.123Z,94.46
2018-12-27T02:08:36.818Z,94.08
2018-12-27T02:09:37.789Z,94.08
2018-12-27T02:10:38.506Z,93.7
2018-12-27T02:11:39.232Z,93.32
2018-12-27T02:12:39.927Z,93.51
2018-12-27T02:13:40.898Z,93.7
2018-12-27T02:14:41.295Z,93.51
2018-12-27T02:15:42.321Z,93.99
2018-12-27T02:16:42.734Z,93.61
2018-12-27T02:17:43.875Z,93.42
2018-12-27T02:18:44.290Z,93.51
2018-12-27T02:19:45.702Z,93.51
2018-12-27T02:20:46.190Z,93.13
2018-12-27T02:21:46.604Z,93.04
2018-12-27T02:22:47.746Z,92.76
2018-12-27T02:23:48.883Z,92.76
2018-12-27T02:24:49.591Z,93.13
2018-12-27T02:25:51.290Z,93.51
2018-12-27T02:26:51.987Z,93.7
2018-12-27T02:27:51.959Z,93.42
2018-12-27T02:28:53.097Z,93.61
2018-12-27T02:29:54.513Z,93.42
2018-12-27T02:30:54.650Z,93.61
2018-12-27T02:31:55.623Z,93.61
2018-12-27T02:32:56.317Z,93.04
2018-12-27T02:33:57.034Z,92.76
2018-12-27T02:34:58.344Z,93.7
2018-12-27T02:35:59.903Z,93.42
2018-12-27T02:36:59.608Z,93.51
2018-12-27T02:38:00.597Z,93.51
2018-12-27T02:39:02.042Z,93.7
2018-12-27T02:40:02.288Z,93.32
2018-12-27T02:41:03.268Z,93.51
2018-12-27T02:42:03.818Z,93.61
2018-12-27T02:43:03.791Z,93.51
2018-12-27T02:44:04.765Z,93.8
2018-12-27T02:45:05.916Z,93.8
2018-12-27T02:46:06.999Z,94.08
2018-12-27T02:47:07.706Z,94.27
2018-12-27T02:48:08.132Z,93.89
2018-12-27T02:49:08.836Z,94.08
2018-12-27T02:50:09.805Z,94.27
2018-12-27T02:51:10.782Z,94.18
2018-12-27T02:52:10.487Z,94.08
2018-12-27T02:53:12.024Z,94.27
2018-12-27T02:54:11.718Z,94.18
2018-12-27T02:55:13.098Z,94.08
2018-12-27T02:56:13.239Z,94.18
2018-12-27T02:57:14.487Z,94.46
2018-12-27T02:58:16.028Z,94.84
2018-12-27T02:59:16.440Z,94.93
2018-12-27T03:00:17.134Z,94.56
2018-12-27T03:01:17.556Z,95.12
2018-12-27T03:02:18.150Z,94.93
2018-12-27T03:03:18.838Z,95.12
2018-12-27T03:04:19.260Z,95.03
2018-12-27T03:05:20.113Z,95.03
2018-12-27T03:06:20.817Z,95.31
2018-12-27T03:07:20.792Z,94.93
2018-12-27T03:08:21.768Z,95.12
2018-12-27T03:09:22.463Z,95.12
2018-12-27T03:10:23.431Z,94.93
2018-12-27T03:11:24.571Z,94.93
2018-12-27T03:12:24.985Z,95.03
2018-12-27T03:13:25.957Z,95.12
2018-12-27T03:14:26.804Z,95.03
2018-12-27T03:15:27.351Z,95.4
2018-12-27T03:16:28.049Z,95.78
2018-12-27T03:17:28.752Z,95.31
2018-12-27T03:18:29.719Z,94.84
2018-12-27T03:19:30.979Z,94.93
2018-12-27T03:20:31.042Z,94.93
2018-12-27T03:21:31.458Z,94.93
2018-12-27T03:22:32.877Z,95.03
2018-12-27T03:23:33.572Z,94.93
2018-12-27T03:24:34.575Z,95.4
2018-12-27T03:25:34.686Z,94.74
2018-12-27T03:26:36.220Z,95.12
2018-12-27T03:27:37.236Z,95.03
2018-12-27T03:28:37.480Z,94.84
2018-12-27T03:29:38.620Z,94.84
2018-12-27T03:30:39.691Z,94.56
2018-12-27T03:31:40.096Z,94.65
2018-12-27T03:32:41.165Z,94.56
2018-12-27T03:33:41.155Z,94.74
2018-12-27T03:34:41.680Z,95.12
2018-12-27T03:35:42.381Z,95.4
2018-12-27T03:36:42.516Z,95.31
2018-12-27T03:37:43.654Z,95.12
2018-12-27T03:38:45.188Z,95.21
2018-12-27T03:39:45.613Z,95.12
2018-12-27T03:40:46.582Z,94.56
2018-12-27T03:41:47.579Z,94.84
2018-12-27T03:42:47.283Z,94.93
2018-12-27T03:43:48.699Z,95.5
2018-12-27T03:44:49.686Z,95.5
2018-12-27T03:45:50.670Z,95.12
2018-12-27T03:46:52.139Z,95.03
2018-12-27T03:47:52.274Z,95.21
2018-12-27T03:48:52.800Z,94.46
2018-12-27T03:49:53.498Z,94.18
2018-12-27T03:50:53.748Z,93.7
2018-12-27T03:51:55.005Z,93.8
2018-12-27T03:52:55.978Z,93.32
2018-12-27T03:53:56.392Z,93.7
2018-12-27T03:54:57.103Z,93.32
2018-12-27T03:55:57.926Z,93.32
2018-12-27T03:56:58.443Z,93.51
2018-12-27T03:57:59.142Z,93.89
2018-12-27T03:58:59.112Z,93.89
2018-12-27T03:59:59.827Z,93.89
2018-12-27T04:01:00.364Z,93.13
2018-12-27T04:02:01.612Z,92.76
2018-12-27T04:03:02.425Z,93.04
2018-12-27T04:04:03.402Z,93.04
2018-12-27T04:05:03.378Z,93.23
2018-12-27T04:06:04.501Z,92.85
2018-12-27T04:07:04.493Z,92.94
2018-12-27T04:08:06.194Z,92.66
2018-12-27T04:09:06.636Z,93.04
2018-12-27T04:10:07.326Z,92.85
2018-12-27T04:11:08.022Z,93.04
2018-12-27T04:12:08.441Z,93.13
2018-12-27T04:13:08.722Z,92.66
2018-12-27T04:14:09.141Z,93.04
2018-12-27T04:15:10.439Z,93.32
2018-12-27T04:16:11.092Z,92.76
2018-12-27T04:17:11.548Z,92.57
2018-12-27T04:18:12.519Z,92.66
2018-12-27T04:19:13.497Z,92.57
2018-12-27T04:20:14.191Z,92.94
2018-12-27T04:21:14.606Z,92.66
2018-12-27T04:22:16.017Z,93.04
2018-12-27T04:23:16.709Z,92.66
2018-12-27T04:24:17.173Z,93.13
2018-12-27T04:25:17.588Z,93.51
2018-12-27T04:26:18.985Z,93.8
2018-12-27T04:27:19.528Z,93.61
2018-12-27T04:28:20.218Z,94.08
2018-12-27T04:29:20.779Z,93.8
2018-12-27T04:30:21.766Z,94.08
2018-12-27T04:31:22.301Z,94.27
2018-12-27T04:32:22.312Z,94.27
2018-12-27T04:33:23.014Z,94.18
2018-12-27T04:34:24.439Z,94.08
2018-12-27T04:35:25.407Z,94.08
2018-12-27T04:36:25.882Z,94.37
2018-12-27T04:37:26.301Z,94.56
2018-12-27T04:38:26.750Z,95.21
2018-12-27T04:39:27.180Z,95.03
2018-12-27T04:40:28.167Z,95.12
2018-12-27T04:41:28.967Z,95.4
2018-12-27T04:42:30.344Z,95.03
2018-12-27T04:43:30.037Z,94.93
2018-12-27T04:44:31.011Z,95.12
2018-12-27T04:45:31.983Z,95.03
2018-12-27T04:46:32.661Z,95.97
2018-12-27T04:47:32.795Z,95.21
2018-12-27T04:48:33.495Z,95.21
2018-12-27T04:49:34.213Z,94.93
2018-12-27T04:50:34.462Z,95.21
2018-12-27T04:51:35.438Z,95.21
2018-12-27T04:52:36.419Z,95.03
2018-12-27T04:53:37.118Z,95.03
2018-12-27T04:54:37.819Z,94.56
2018-12-27T04:55:38.509Z,94.56
2018-12-27T04:56:39.209Z,94.27
2018-12-27T04:57:39.454Z,94.37
2018-12-27T04:58:40.142Z,93.42
2018-12-27T04:59:40.855Z,93.13
2018-12-27T05:00:41.417Z,93.32
2018-12-27T05:01:42.117Z,93.61
2018-12-27T05:02:42.809Z,93.32
2018-12-27T05:03:43.506Z,93.51
2018-12-27T05:04:44.569Z,93.7
2018-12-27T05:05:45.538Z,93.13
2018-12-27T05:06:46.370Z,93.32
2018-12-27T05:07:47.349Z,93.61
2018-12-27T05:08:48.319Z,93.32
2018-12-27T05:09:48.770Z,93.51
2018-12-27T05:10:49.203Z,93.89
2018-12-27T05:11:50.179Z,93.89
2018-12-27T05:12:50.873Z,93.7
2018-12-27T05:13:51.594Z,93.32
2018-12-27T05:14:52.288Z,93.42
2018-12-27T05:15:52.701Z,93.51
2018-12-27T05:16:54.098Z,93.32
2018-12-27T05:17:55.068Z,93.42
2018-12-27T05:18:56.038Z,93.99
2018-12-27T05:19:57.012Z,93.32
2018-12-27T05:20:57.198Z,93.7
2018-12-27T05:21:57.740Z,92.76
2018-12-27T05:22:58.154Z,93.7
2018-12-27T05:23:59.154Z,93.8
2018-12-27T05:24:58.842Z,93.32
2018-12-27T05:26:00.209Z,92.38
2018-12-27T05:27:01.057Z,91.53
2018-12-27T05:28:02.585Z,91.53
2018-12-27T05:29:03.567Z,90.96
2018-12-27T05:30:03.543Z,90.68
2018-12-27T05:31:04.160Z,90.39
2018-12-27T05:32:04.572Z,89.92
2018-12-27T05:33:04.987Z,89.83
2018-12-27T05:34:06.416Z,89.64
2018-12-27T05:35:07.107Z,89.64
2018-12-27T05:36:07.519Z,88.98
2018-12-27T05:37:07.730Z,89.92
2018-12-27T05:38:08.147Z,90.01
2018-12-27T05:39:09.115Z,89.64
2018-12-27T05:40:09.805Z,89.64
2018-12-27T05:41:10.224Z,89.45
2018-12-27T05:42:10.913Z,90.01
2018-12-27T05:43:12.047Z,90.01
2018-12-27T05:44:13.188Z,89.64
2018-12-27T05:45:14.324Z,89.73
2018-12-27T05:46:15.291Z,89.92
2018-12-27T05:47:15.692Z,89.83
2018-12-27T05:48:16.666Z,89.64
2018-12-27T05:49:16.638Z,89.92
2018-12-27T05:50:17.770Z,89.73
2018-12-27T05:51:18.739Z,89.64
2018-12-27T05:52:18.986Z,89.64
2018-12-27T05:53:19.123Z,89.64
2018-12-27T05:54:19.882Z,89.54
2018-12-27T05:55:20.854Z,90.01
2018-12-27T05:56:21.101Z,90.11
2018-12-27T05:57:21.489Z,90.39
2018-12-27T05:58:21.689Z,90.39
2018-12-27T05:59:22.379Z,90.39
2018-12-27T06:00:23.626Z,90.01
2018-12-27T06:01:24.315Z,90.39
2018-12-27T06:02:25.005Z,89.83
2018-12-27T06:03:25.438Z,90.01
2018-12-27T06:04:33.493Z,89.64
2018-12-27T06:04:37.569Z,89.54
2018-12-27T06:05:38.689Z,90.01
2018-12-27T06:06:38.831Z,90.39
2018-12-27T06:07:39.521Z,90.3
2018-12-27T06:08:39.933Z,90.11
2018-12-27T06:09:40.903Z,90.3
2018-12-27T06:10:41.872Z,90.11
2018-12-27T06:11:42.288Z,90.11
2018-12-27T06:12:42.701Z,90.11
2018-12-27T06:13:44.115Z,90.2
2018-12-27T06:14:44.811Z,90.39
2018-12-27T06:15:45.917Z,90.86
2018-12-27T06:16:46.330Z,90.86
2018-12-27T06:17:47.296Z,90.77
2018-12-27T06:18:48.544Z,90.49
2018-12-27T06:19:48.962Z,90.11
2018-12-27T06:20:49.374Z,90.11
2018-12-27T06:21:50.066Z,89.64
2018-12-27T06:22:50.479Z,89.64
2018-12-27T06:23:51.031Z,89.73
2018-12-27T06:24:51.993Z,89.64
2018-12-27T06:25:52.820Z,90.11
2018-12-27T06:26:53.022Z,89.73
2018-12-27T06:27:53.719Z,88.69
2018-12-27T06:28:53.990Z,88.79
2018-12-27T06:29:54.239Z,88.31
2018-12-27T06:30:54.654Z,87.74
2018-12-27T06:31:55.432Z,87.27
2018-12-27T06:32:56.124Z,87.27
2018-12-27T06:33:57.093Z,87.18
2018-12-27T06:34:58.506Z,86.8
2018-12-27T06:35:59.662Z,86.66
2018-12-27T06:36:59.871Z,87.13
2018-12-27T06:38:00.564Z,87.13
2018-12-27T06:39:00.979Z,87.32
2018-12-27T06:40:01.398Z,86.71
2018-12-27T06:41:02.644Z,87.32
2018-12-27T06:42:03.338Z,87.51
2018-12-27T06:43:03.476Z,87.7
2018-12-27T06:44:04.452Z,87.7
2018-12-27T06:45:05.144Z,88.69
2018-12-27T06:46:05.076Z,87.93
2018-12-27T06:47:06.492Z,88.93
2018-12-27T06:48:07.461Z,88.31
2018-12-27T06:49:08.431Z,88.31
2018-12-27T06:50:09.124Z,87.93
2018-12-27T06:51:10.096Z,88.31
2018-12-27T06:52:11.073Z,88.41
2018-12-27T06:53:11.319Z,88.12
2018-12-27T06:54:12.075Z,88.5
2018-12-27T06:55:12.487Z,89.17
2018-12-27T06:56:13.631Z,89.07
2018-12-27T06:57:14.768Z,89.92
2018-12-27T06:58:16.607Z,89.73
2018-12-27T06:59:17.347Z,89.54
2018-12-27T07:00:18.594Z,90.3
2018-12-27T07:01:19.304Z,90.11
2018-12-27T07:02:20.010Z,89.83
2018-12-27T07:03:20.430Z,90.11
2018-12-27T07:04:20.847Z,90.49
2018-12-27T07:05:21.894Z,90.3
2018-12-27T07:06:22.006Z,90.58
2018-12-27T07:07:23.668Z,91.05
2018-12-27T07:08:24.154Z,91.05
2018-12-27T07:09:24.850Z,90.68
2018-12-27T07:10:25.993Z,90.96
2018-12-27T07:11:27.687Z,90.96
2018-12-27T07:12:28.171Z,90.96
2018-12-27T07:13:29.141Z,91.05
2018-12-27T07:14:29.114Z,90.58
2018-12-27T07:15:30.534Z,90.3
2018-12-27T07:16:30.934Z,90.2
2018-12-27T07:17:32.226Z,90.11
2018-12-27T07:18:32.195Z,89.83
2018-12-27T07:19:32.614Z,89.73
2018-12-27T07:20:33.037Z,89.64
2018-12-27T07:21:33.455Z,89.64
2018-12-27T07:22:34.595Z,89.45
2018-12-27T07:23:35.292Z,89.36
2018-12-27T07:24:35.708Z,89.26
2018-12-27T07:25:36.741Z,89.64
2018-12-27T07:26:37.592Z,89.45
2018-12-27T07:27:38.008Z,89.26
2018-12-27T07:28:39.129Z,88.79
2018-12-27T07:29:43.079Z,89.07
2018-12-27T07:29:54.032Z,88.79
2018-12-27T07:30:06.314Z,89.36
2018-12-27T07:30:17.896Z,89.17
2018-12-27T07:30:29.796Z,89.26
2018-12-27T07:30:41.796Z,89.17
2018-12-27T07:30:53.617Z,89.07
2018-12-27T07:31:05.562Z,89.36
2018-12-27T07:31:17.904Z,88.98
2018-12-27T07:31:29.246Z,89.26
2018-12-27T07:32:28.663Z,89.07
2018-12-27T07:33:29.366Z,88.79
2018-12-27T07:34:29.619Z,88.98
2018-12-27T07:35:30.757Z,89.07
2018-12-27T07:36:31.901Z,89.07
2018-12-27T07:37:32.598Z,89.26
2018-12-27T07:38:33.296Z,88.93
2018-12-27T07:39:33.712Z,88.69
2018-12-27T07:40:35.130Z,88.79
2018-12-27T07:41:35.556Z,88.98
2018-12-27T07:42:36.391Z,88.88
2018-12-27T07:43:37.530Z,89.07
2018-12-27T07:44:38.236Z,88.83
2018-12-27T07:45:38.494Z,88.41
2018-12-27T07:46:39.284Z,87.7
2018-12-27T07:47:39.695Z,87.04
2018-12-27T07:48:41.115Z,86.85
2018-12-27T07:49:42.260Z,87.13
2018-12-27T07:50:43.235Z,86.18
2018-12-27T07:51:44.378Z,85.61
2018-12-27T07:52:45.511Z,84.77
2018-12-27T07:53:46.952Z,83.67
2018-12-27T07:54:47.495Z,82.82
2018-12-27T07:55:47.915Z,82.25
2018-12-27T07:56:49.066Z,80.49
2018-12-27T07:57:49.803Z,78.69
2018-12-27T07:58:53.585Z,77.59
2018-12-27T07:59:04.515Z,76.97
2018-12-27T08:00:07.912Z,75.07
2018-12-27T08:00:18.975Z,74.79
2018-12-27T08:00:31.296Z,74.79
2018-12-27T08:00:43.585Z,74.41
2018-12-27T08:00:53.872Z,74.6
2018-12-27T08:01:53.171Z,73.37
2018-12-27T08:02:53.875Z,72.14
2018-12-27T08:03:54.079Z,71.51
2018-12-27T08:04:55.223Z,71.66
2018-12-27T08:05:09.259Z,71.38
2018-12-27T08:06:09.851Z,72.23
2018-12-27T08:07:10.113Z,72.23
2018-12-27T08:08:10.810Z,72.42
2018-12-27T08:09:11.511Z,72.42
2018-12-27T08:10:12.766Z,72.52
2018-12-27T08:11:13.191Z,72.14
2018-12-27T08:12:16.100Z,71.95
2018-12-27T08:13:14.987Z,71.85
2018-12-27T08:14:16.408Z,72.71
2018-12-27T08:15:17.462Z,73.27
2018-12-27T08:16:17.884Z,73.46
2018-12-27T08:17:18.585Z,73.9
2018-12-27T08:18:19.323Z,73.9
2018-12-27T08:19:20.086Z,74.37
2018-12-27T08:20:20.505Z,74.85
2018-12-27T08:21:20.927Z,74.28
2018-12-27T08:22:22.418Z,73.43
2018-12-27T08:23:23.393Z,73.46
2018-12-27T08:24:23.859Z,73.08
2018-12-27T08:25:24.291Z,72.33
2018-12-27T08:26:24.600Z,71.47
2018-12-27T08:27:25.026Z,71.38
2018-12-27T08:28:27.205Z,70.94
2018-12-27T08:29:27.384Z,70.94
2018-12-27T08:30:28.080Z,71.19
2018-12-27T08:31:29.225Z,71
2018-12-27T08:32:30.201Z,71.85
2018-12-27T08:33:30.630Z,71.95
2018-12-27T08:34:31.328Z,72.14
2018-12-27T08:35:31.752Z,72.61
2018-12-27T08:36:32.303Z,73.18
2018-12-27T08:37:33.281Z,72.99
2018-12-27T08:38:33.705Z,73.33
2018-12-27T08:39:34.128Z,73.37
2018-12-27T08:40:35.277Z,73.08
2018-12-27T08:41:35.979Z,72.61
2018-12-27T08:42:36.403Z,72.42
2018-12-27T08:43:40.200Z,71.41
2018-12-27T08:43:52.361Z,71.8
2018-12-27T08:44:50.979Z,70.94
2018-12-27T08:45:52.126Z,71.13
2018-12-27T08:46:53.274Z,70.65
2018-12-27T08:47:53.978Z,70.37
2018-12-27T08:48:54.679Z,69.8
2018-12-27T08:49:55.104Z,70.28
2018-12-27T08:50:56.084Z,70.75
2018-12-27T08:51:56.795Z,70.65
2018-12-27T08:52:57.493Z,71.13
2018-12-27T08:53:57.921Z,70.94
2018-12-27T08:54:58.775Z,71.89
2018-12-27T08:56:00.163Z,71.95
2018-12-27T08:57:00.644Z,71.85
2018-12-27T08:58:01.900Z,71.66
2018-12-27T08:59:05.962Z,71.85
2018-12-27T08:59:16.841Z,71.66
2018-12-27T09:00:14.762Z,71.76
2018-12-27T09:01:15.472Z,71.98
2018-12-27T09:02:15.616Z,71.6
2018-12-27T09:03:16.039Z,70.47
2018-12-27T09:04:17.028Z,69.99
2018-12-27T09:05:20.085Z,70.18
2018-12-27T09:06:21.338Z,70.65
2018-12-27T09:07:22.035Z,72.36
2018-12-27T09:08:22.455Z,71.8
2018-12-27T09:09:23.173Z,71.41
2018-12-27T09:10:23.754Z,72.36
2018-12-27T09:11:25.186Z,70.72
2018-12-27T09:12:25.606Z,71.51
2018-12-27T09:13:25.751Z,71.09
2018-12-27T09:14:26.007Z,70.65
2018-12-27T09:15:27.151Z,69.99
2018-12-27T09:16:28.299Z,69.52
2018-12-27T09:17:28.731Z,69.13
2018-12-27T09:18:29.166Z,68.32
2018-12-27T09:19:29.601Z,68.32
2018-12-27T09:20:31.558Z,67.08
2018-12-27T09:21:31.039Z,67.12
2018-12-27T09:22:31.598Z,67.31
2018-12-27T09:23:31.743Z,66.55
2018-12-27T09:24:32.720Z,66.55
2018-12-27T09:25:33.147Z,66.93
2018-12-27T09:26:34.123Z,66.74
2018-12-27T09:27:34.843Z,66.55
2018-12-27T09:28:35.539Z,66.64
2018-12-27T09:29:36.237Z,67.06
2018-12-27T09:30:36.634Z,67.02
2018-12-27T09:31:36.888Z,67.02
2018-12-27T09:32:37.728Z,67.21
2018-12-27T09:33:38.797Z,67.31
2018-12-27T09:34:39.709Z,67.79
2018-12-27T09:35:39.919Z,68.35
2018-12-27T09:36:40.344Z,69.21
2018-12-27T09:37:40.780Z,69.4
2018-12-27T09:38:41.760Z,70.4
2018-12-27T09:39:42.185Z,71.26
2018-12-27T09:40:42.763Z,70.69
2018-12-27T09:41:43.909Z,70.21
2018-12-27T09:42:45.613Z,69.74
2018-12-27T09:43:45.865Z,69.27
2018-12-27T09:44:47.293Z,69.08
2018-12-27T09:45:48.437Z,68.89
2018-12-27T09:46:49.418Z,69.17
2018-12-27T09:47:49.842Z,69.08
2018-12-27T09:48:50.987Z,68.79
2018-12-27T09:49:51.694Z,69.17
2018-12-27T09:50:52.360Z,69.27
2018-12-27T09:51:53.062Z,69.27
2018-12-27T09:52:04.831Z,69.17
2018-12-27T09:53:05.590Z,69.08
2018-12-27T09:54:06.019Z,69.46
2018-12-27T09:55:06.992Z,69.08
2018-12-27T09:56:07.695Z,69.74
2018-12-27T09:57:08.672Z,70.03
2018-12-27T09:58:08.934Z,69.65
2018-12-27T09:59:11.459Z,70.12
2018-12-27T09:59:22.327Z,70.03
2018-12-27T10:00:21.746Z,70.4
2018-12-27T10:01:22.212Z,70.59
2018-12-27T10:02:23.232Z,70.21
2018-12-27T10:03:23.660Z,69.84
2018-12-27T10:04:24.636Z,69.84
2018-12-27T10:05:24.942Z,69.55
2018-12-27T10:05:36.982Z,69.55
2018-12-27T10:06:38.125Z,69.84
2018-12-27T10:07:39.270Z,70.12
2018-12-27T10:08:39.978Z,70.12
2018-12-27T10:09:41.240Z,70.31
2018-12-27T10:10:41.665Z,70.21
2018-12-27T10:11:42.812Z,70.78
2018-12-27T10:12:43.551Z,71.11
2018-12-27T10:13:45.404Z,71.86
2018-12-27T10:14:46.040Z,71.92
2018-12-27T10:15:46.645Z,70.78
2018-12-27T10:16:47.779Z,70.21
2018-12-27T10:17:48.209Z,70.4
2018-12-27T10:18:49.631Z,69.96
2018-12-27T10:19:50.334Z,70.44
2018-12-27T10:20:50.756Z,70.59
2018-12-27T10:21:51.188Z,70.12
2018-12-27T10:22:52.336Z,70.4
2018-12-27T10:23:53.037Z,69.65
2018-12-27T10:24:54.014Z,69.74
2018-12-27T10:25:54.497Z,70.5
2018-12-27T10:26:55.893Z,71.83
2018-12-27T10:27:56.664Z,72.11
2018-12-27T10:29:00.642Z,72.21
2018-12-27T10:29:10.517Z,72.02
2018-12-27T10:30:09.715Z,72.4
2018-12-27T10:31:10.986Z,72.4
2018-12-27T10:32:11.406Z,72.4
2018-12-27T10:33:12.104Z,72.15
2018-12-27T10:34:12.814Z,71.58
2018-12-27T10:35:13.237Z,71.86
2018-12-27T10:36:14.415Z,71.48
2018-12-27T10:37:15.138Z,72.15
2018-12-27T10:38:15.391Z,71.58
2018-12-27T10:39:15.888Z,71.96
2018-12-27T10:40:17.067Z,71.86
2018-12-27T10:41:17.770Z,72.15
2018-12-27T10:42:19.027Z,72.15
2018-12-27T10:43:18.932Z,72.44
2018-12-27T10:44:19.194Z,72.25
2018-12-27T10:45:19.915Z,72.91
2018-12-27T10:46:20.620Z,71.86
2018-12-27T10:47:21.597Z,71.2
2018-12-27T10:48:21.750Z,71.04
2018-12-27T10:49:23.539Z,70.1
2018-12-27T10:50:26.683Z,69.15
2018-12-27T10:50:37.940Z,69.62
2018-12-27T10:50:49.812Z,69.53
2018-12-27T10:51:01.959Z,69.05
2018-12-27T10:51:14.979Z,69.24
2018-12-27T10:51:26.679Z,69.62
2018-12-27T10:52:28.151Z,68.29
2018-12-27T10:52:37.179Z,68.52
2018-12-27T10:53:37.566Z,68.23
2018-12-27T10:54:39.612Z,67.57
2018-12-27T10:55:42.698Z,66.94
2018-12-27T10:56:41.530Z,66.94
2018-12-27T10:57:41.961Z,64.5
2018-12-27T10:58:42.956Z,64.31
2018-12-27T10:59:47.556Z,63.45
2018-12-27T10:59:58.440Z,63.92
2018-12-27T11:00:11.267Z,63.89
2018-12-27T11:00:24.356Z,64.21
2018-12-27T11:00:34.809Z,64.21
2018-12-27T11:01:34.714Z,63.45
2018-12-27T11:02:35.570Z,64.21
2018-12-27T11:03:36.272Z,64.18
2018-12-27T11:04:37.252Z,64.27
2018-12-27T11:05:37.400Z,64.65
2018-12-27T11:06:37.617Z,64.21
2018-12-27T11:07:38.324Z,63.92
2018-12-27T11:08:39.028Z,64.31
2018-12-27T11:09:39.451Z,64.31
2018-12-27T11:10:39.882Z,64.5
2018-12-27T11:11:40.579Z,64.4
2018-12-27T11:12:41.011Z,63.83
2018-12-27T11:13:42.440Z,64.59
2018-12-27T11:14:43.499Z,63.54
2018-12-27T11:15:43.485Z,62.91
2018-12-27T11:16:44.639Z,62.34
2018-12-27T11:17:44.840Z,61.86
2018-12-27T11:18:45.548Z,63.1
2018-12-27T11:19:47.754Z,62.53
2018-12-27T11:20:47.513Z,62.62
2018-12-27T11:21:48.665Z,63.1
2018-12-27T11:22:49.091Z,62.62
2018-12-27T11:23:49.819Z,62.43
2018-12-27T11:24:50.248Z,62.08
2018-12-27T11:25:51.838Z,60.85
2018-12-27T11:26:51.787Z,60.85
2018-12-27T11:27:52.215Z,60.56
2018-12-27T11:28:53.482Z,59.45
2018-12-27T11:29:57.343Z,57.92
2018-12-27T11:30:08.777Z,57.35
2018-12-27T11:30:20.213Z,56.9
2018-12-27T11:31:18.670Z,57.28
2018-12-27T11:32:19.101Z,57.28
2018-12-27T11:33:20.209Z,57.38
2018-12-27T11:34:20.991Z,57.57
2018-12-27T11:35:21.698Z,57.54
2018-12-27T11:36:22.150Z,57
2018-12-27T11:37:23.134Z,57.48
2018-12-27T11:38:23.563Z,57
2018-12-27T11:39:24.270Z,57.07
2018-12-27T11:40:24.293Z,56.14
2018-12-27T11:41:25.146Z,56.33
2018-12-27T11:42:26.576Z,56.43
2018-12-27T11:43:27.282Z,56.62
2018-12-27T11:44:27.989Z,56.4
2018-12-27T11:45:28.303Z,56.62
2018-12-27T11:46:29.360Z,56.43
2018-12-27T11:47:29.551Z,56.52
2018-12-27T11:48:33.947Z,54.8
2018-12-27T11:48:43.748Z,54.71
2018-12-27T11:49:43.056Z,55
2018-12-27T11:50:44.209Z,54.71
2018-12-27T11:51:44.643Z,54.61
2018-12-27T11:52:45.070Z,53.76
2018-12-27T11:53:45.779Z,53.85
2018-12-27T11:54:48.489Z,53.59
2018-12-27T11:55:48.589Z,54.36
2018-12-27T11:56:48.743Z,54.45
2018-12-27T11:57:49.891Z,53.02
2018-12-27T11:58:50.882Z,53.69
2018-12-27T11:59:53.449Z,53.69
2018-12-27T12:00:05.286Z,53.41
2018-12-27T12:00:17.667Z,52.73
2018-12-27T12:00:31.750Z,52.26
2018-12-27T12:00:42.418Z,52.07
2018-12-27T12:01:42.188Z,51.68
2018-12-27T12:02:42.622Z,50.73
2018-12-27T12:03:43.611Z,50.54
2018-12-27T12:04:44.321Z,51.21
2018-12-27T12:05:48.211Z,51.4
2018-12-27T12:06:49.614Z,50.83
2018-12-27T12:07:00.324Z,50.83
2018-12-27T12:07:59.100Z,50.63
2018-12-27T12:09:00.277Z,50.09
2018-12-27T12:10:01.532Z,48.94
2018-12-27T12:11:02.799Z,48.18
2018-12-27T12:12:03.793Z,47.25
2018-12-27T12:13:04.509Z,47.34
2018-12-27T12:14:05.255Z,47.25
2018-12-27T12:15:06.318Z,46.97
2018-12-27T12:16:07.021Z,47.47
2018-12-27T12:17:07.734Z,46.89
2018-12-27T12:18:08.383Z,47.27
2018-12-27T12:19:09.751Z,46.22
2018-12-27T12:20:10.184Z,46.15
2018-12-27T12:21:11.896Z,45.65
2018-12-27T12:22:12.605Z,45.65
2018-12-27T12:23:13.039Z,45.65
2018-12-27T12:24:13.474Z,45.46
2018-12-27T12:25:14.803Z,46.32
2018-12-27T12:26:15.515Z,47.08
2018-12-27T12:27:15.669Z,48.49
2018-12-27T12:28:15.865Z,49.35
2018-12-27T12:29:17.292Z,48.85
2018-12-27T12:30:18.437Z,48.66
2018-12-27T12:31:20.857Z,49.52
2018-12-27T12:32:21.006Z,48.94
2018-12-27T12:33:22.999Z,50.35